createdAt,value
2023-04-07T00:00:25.722Z,530.00
2023-04-07T00:01:25.702Z,530.00
2023-04-07T00:02:25.884Z,530.00
2023-04-07T00:03:25.766Z,529.00
2023-04-07T00:04:25.862Z,530.00
2023-04-07T00:05:25.648Z,529.00
2023-04-07T00:06:26.464Z,530.00
2023-04-07T00:07:25.644Z,529.00
2023-04-07T00:08:25.590Z,531.00
2023-04-07T00:09:25.580Z,529.00
2023-04-07T00:10:25.596Z,531.00
2023-04-07T00:11:26.518Z,530.00
2023-04-07T00:12:25.562Z,530.00
2023-04-07T00:13:25.583Z,530.00
2023-04-07T00:14:25.542Z,530.00
2023-04-07T00:15:25.539Z,529.00
2023-04-07T00:16:25.570Z,532.00
2023-04-07T00:17:25.520Z,530.00
2023-04-07T00:18:25.513Z,530.00
2023-04-07T00:19:25.500Z,530.00
2023-04-07T00:20:25.474Z,531.00
2023-04-07T00:21:25.494Z,530.00
2023-04-07T00:22:25.454Z,530.00
2023-04-07T00:23:25.458Z,531.00
2023-04-07T00:24:33.892Z,531.00
2023-04-07T00:25:26.457Z,530.00
2023-04-07T00:26:25.423Z,529.00
2023-04-07T00:27:25.525Z,531.00
2023-04-07T00:28:25.389Z,530.00
2023-04-07T00:29:25.373Z,530.00
2023-04-07T00:30:25.366Z,529.00
2023-04-07T00:31:25.370Z,530.00
2023-04-07T00:32:25.393Z,530.00
2023-04-07T00:33:25.367Z,530.00
2023-04-07T00:34:25.359Z,531.00
2023-04-07T00:35:25.355Z,530.00
2023-04-07T00:36:25.337Z,531.00
2023-04-07T00:37:25.333Z,530.00
2023-04-07T00:38:25.281Z,531.00
2023-04-07T00:39:25.276Z,530.00
2023-04-07T00:40:25.252Z,530.00
2023-04-07T00:41:25.253Z,531.00
2023-04-07T00:42:25.247Z,531.00
2023-04-07T00:43:25.239Z,531.00
2023-04-07T00:44:25.980Z,531.00
2023-04-07T00:45:25.258Z,531.00
2023-04-07T00:46:25.248Z,531.00
2023-04-07T00:47:25.220Z,529.00
2023-04-07T00:48:25.207Z,530.00
2023-04-07T00:49:25.187Z,531.00
2023-04-07T00:50:25.216Z,531.00
2023-04-07T00:51:25.153Z,531.00
2023-04-07T00:52:25.128Z,531.00
2023-04-07T00:53:25.109Z,529.00
2023-04-07T00:54:25.147Z,531.00
2023-04-07T00:55:25.508Z,531.00
2023-04-07T00:56:25.095Z,530.00
2023-04-07T00:57:25.109Z,530.00
2023-04-07T00:58:25.070Z,530.00
2023-04-07T00:59:25.052Z,530.00
2023-04-07T01:00:25.048Z,531.00
2023-04-07T01:01:25.119Z,530.00
2023-04-07T01:02:25.106Z,531.00
2023-04-07T01:03:25.341Z,531.00
2023-04-07T01:04:25.097Z,530.00
2023-04-07T01:05:25.027Z,530.00
2023-04-07T01:06:25.013Z,530.00
2023-04-07T01:07:25.092Z,530.00
2023-04-07T01:08:25.021Z,531.00
2023-04-07T01:09:25.023Z,531.00
2023-04-07T01:10:24.940Z,530.00
2023-04-07T01:11:24.942Z,530.00
2023-04-07T01:12:24.915Z,531.00
2023-04-07T01:13:24.925Z,530.00
2023-04-07T01:14:24.917Z,531.00
2023-04-07T01:15:24.886Z,531.00
2023-04-07T01:16:24.896Z,530.00
2023-04-07T01:17:24.894Z,530.00
2023-04-07T01:18:24.873Z,530.00
2023-04-07T01:19:24.882Z,531.00
2023-04-07T01:20:24.818Z,530.00
2023-04-07T01:21:25.492Z,529.00
2023-04-07T01:22:24.817Z,531.00
2023-04-07T01:23:24.797Z,531.00
2023-04-07T01:24:24.815Z,531.00
2023-04-07T01:25:24.818Z,531.00
2023-04-07T01:26:24.754Z,531.00
2023-04-07T01:27:24.749Z,530.00
2023-04-07T01:28:24.744Z,531.00
2023-04-07T01:29:24.723Z,530.00
2023-04-07T01:30:24.745Z,531.00
2023-04-07T01:31:24.769Z,530.00
2023-04-07T01:32:24.760Z,531.00
2023-04-07T01:33:24.688Z,531.00
2023-04-07T01:34:24.714Z,531.00
2023-04-07T01:35:24.665Z,531.00
2023-04-07T01:36:24.651Z,530.00
2023-04-07T01:37:24.700Z,530.00
2023-04-07T01:38:24.654Z,530.00
2023-04-07T01:39:24.638Z,531.00
2023-04-07T01:40:24.630Z,531.00
2023-04-07T01:41:24.633Z,530.00
2023-04-07T01:42:24.593Z,530.00
2023-04-07T01:43:24.644Z,530.00
2023-04-07T01:44:24.616Z,531.00
2023-04-07T01:45:24.554Z,530.00
2023-04-07T01:46:24.546Z,531.00
2023-04-07T01:47:24.703Z,531.00
2023-04-07T01:48:24.530Z,531.00
2023-04-07T01:49:25.498Z,531.00
2023-04-07T01:50:25.554Z,531.00
2023-04-07T01:51:24.505Z,531.00
2023-04-07T01:52:24.486Z,530.00
2023-04-07T01:53:24.469Z,531.00
2023-04-07T01:54:24.499Z,531.00
2023-04-07T01:55:24.480Z,531.00
2023-04-07T01:56:24.449Z,531.00
2023-04-07T01:57:24.422Z,530.00
2023-04-07T01:58:24.436Z,531.00
2023-04-07T01:59:24.440Z,530.00
2023-04-07T02:00:24.408Z,531.00
2023-04-07T02:01:24.561Z,531.00
2023-04-07T02:02:25.138Z,531.00
2023-04-07T02:03:25.119Z,530.00
2023-04-07T02:04:24.395Z,530.00
2023-04-07T02:05:24.345Z,531.00
2023-04-07T02:06:24.348Z,531.00
2023-04-07T02:07:24.324Z,531.00
2023-04-07T02:08:24.340Z,530.00
2023-04-07T02:09:24.316Z,531.00
2023-04-07T02:10:24.323Z,530.00
2023-04-07T02:11:24.291Z,532.00
2023-04-07T02:12:24.287Z,532.00
2023-04-07T02:13:24.263Z,531.00
2023-04-07T02:14:24.297Z,530.00
2023-04-07T02:15:24.280Z,531.00
2023-04-07T02:16:24.384Z,531.00
2023-04-07T02:17:25.046Z,530.00
2023-04-07T02:18:25.006Z,531.00
2023-04-07T02:19:24.204Z,531.00
2023-04-07T02:20:31.291Z,530.00
2023-04-07T02:21:24.193Z,530.00
2023-04-07T02:22:24.176Z,531.00
2023-04-07T02:23:24.159Z,531.00
2023-04-07T02:24:24.239Z,531.00
2023-04-07T02:25:24.148Z,531.00
2023-04-07T02:26:24.601Z,530.00
2023-04-07T02:27:24.121Z,530.00
2023-04-07T02:28:24.105Z,532.00
2023-04-07T02:29:25.039Z,532.00
2023-04-07T02:30:24.136Z,532.00
2023-04-07T02:31:25.040Z,530.00
2023-04-07T02:32:24.122Z,531.00
2023-04-07T02:33:24.070Z,531.00
2023-04-07T02:34:24.046Z,530.00
2023-04-07T02:35:24.052Z,530.00
2023-04-07T02:36:24.096Z,531.00
2023-04-07T02:37:24.046Z,531.00
2023-04-07T02:38:23.994Z,531.00
2023-04-07T02:39:23.992Z,532.00
2023-04-07T02:40:23.981Z,531.00
2023-04-07T02:41:23.977Z,531.00
2023-04-07T02:42:24.018Z,532.00
2023-04-07T02:43:23.955Z,530.00
2023-04-07T02:44:23.924Z,531.00
2023-04-07T02:45:24.504Z,531.00
2023-04-07T02:46:23.970Z,531.00
2023-04-07T02:47:23.945Z,530.00
2023-04-07T02:48:23.929Z,531.00
2023-04-07T02:49:24.556Z,531.00
2023-04-07T02:50:23.868Z,530.00
2023-04-07T02:51:23.856Z,532.00
2023-04-07T02:52:23.888Z,531.00
2023-04-07T02:53:23.874Z,531.00
2023-04-07T02:54:24.546Z,530.00
2023-04-07T02:55:23.860Z,531.00
2023-04-07T02:56:23.809Z,532.00
2023-04-07T02:57:23.805Z,531.00
2023-04-07T02:58:23.825Z,531.00
2023-04-07T02:59:24.081Z,531.00
2023-04-07T03:00:23.784Z,531.00
2023-04-07T03:01:23.777Z,530.00
2023-04-07T03:02:23.807Z,530.00
2023-04-07T03:03:23.834Z,532.00
2023-04-07T03:04:23.885Z,531.00
2023-04-07T03:05:23.733Z,532.00
2023-04-07T03:06:23.729Z,531.00
2023-04-07T03:07:23.684Z,530.00
2023-04-07T03:08:23.685Z,532.00
2023-04-07T03:09:23.694Z,531.00
2023-04-07T03:10:23.663Z,531.00
2023-04-07T03:11:23.658Z,530.00
2023-04-07T03:12:23.668Z,530.00
2023-04-07T03:13:23.628Z,532.00
2023-04-07T03:14:23.640Z,531.00
2023-04-07T03:15:23.615Z,532.00
2023-04-07T03:16:23.651Z,531.00
2023-04-07T03:17:24.102Z,531.00
2023-04-07T03:18:23.569Z,530.00
2023-04-07T03:19:23.570Z,531.00
2023-04-07T03:20:23.546Z,531.00
2023-04-07T03:21:23.601Z,531.00
2023-04-07T03:22:23.528Z,530.00
2023-04-07T03:23:23.633Z,531.00
2023-04-07T03:24:23.503Z,531.00
2023-04-07T03:25:23.518Z,531.00
2023-04-07T03:26:23.497Z,531.00
2023-04-07T03:27:23.480Z,531.00
2023-04-07T03:28:23.454Z,531.00
2023-04-07T03:29:23.492Z,531.00
2023-04-07T03:30:23.468Z,531.00
2023-04-07T03:31:23.515Z,531.00
2023-04-07T03:32:23.447Z,532.00
2023-04-07T03:33:23.418Z,531.00
2023-04-07T03:34:23.443Z,531.00
2023-04-07T03:35:23.393Z,531.00
2023-04-07T03:36:23.423Z,531.00
2023-04-07T03:37:23.382Z,530.00
2023-04-07T03:38:23.344Z,530.00
2023-04-07T03:39:23.350Z,531.00
2023-04-07T03:40:23.373Z,531.00
2023-04-07T03:41:23.384Z,531.00
2023-04-07T03:42:23.311Z,532.00
2023-04-07T03:43:23.312Z,532.00
2023-04-07T03:44:23.300Z,531.00
2023-04-07T03:45:23.280Z,531.00
2023-04-07T03:46:23.366Z,531.00
2023-04-07T03:47:23.295Z,532.00
2023-04-07T03:48:23.288Z,531.00
2023-04-07T03:49:23.269Z,532.00
2023-04-07T03:50:24.096Z,532.00
2023-04-07T03:51:23.224Z,531.00
2023-04-07T03:52:23.222Z,531.00
2023-04-07T03:53:23.226Z,531.00
2023-04-07T03:54:23.191Z,532.00
2023-04-07T03:55:23.187Z,531.00
2023-04-07T03:56:23.206Z,531.00
2023-04-07T03:57:23.170Z,532.00
2023-04-07T03:58:23.163Z,531.00
2023-04-07T03:59:23.134Z,531.00
2023-04-07T04:00:23.121Z,532.00
2023-04-07T04:01:23.111Z,530.00
2023-04-07T04:02:23.295Z,532.00
2023-04-07T04:03:24.140Z,531.00
2023-04-07T04:04:23.175Z,530.00
2023-04-07T04:05:23.073Z,531.00
2023-04-07T04:06:23.586Z,532.00
2023-04-07T04:07:23.097Z,532.00
2023-04-07T04:08:23.064Z,532.00
2023-04-07T04:09:23.019Z,532.00
2023-04-07T04:10:23.026Z,532.00
2023-04-07T04:11:23.007Z,532.00
2023-04-07T04:12:23.029Z,532.00
2023-04-07T04:13:22.977Z,532.00
2023-04-07T04:14:22.966Z,532.00
2023-04-07T04:15:22.967Z,531.00
2023-04-07T04:16:23.056Z,532.00
2023-04-07T04:17:23.626Z,531.00
2023-04-07T04:18:22.986Z,530.00
2023-04-07T04:19:23.612Z,531.00
2023-04-07T04:20:22.999Z,532.00
2023-04-07T04:21:22.892Z,531.00
2023-04-07T04:22:22.900Z,531.00
2023-04-07T04:23:22.872Z,532.00
2023-04-07T04:24:22.871Z,532.00
2023-04-07T04:25:22.879Z,531.00
2023-04-07T04:26:22.879Z,532.00
2023-04-07T04:27:23.596Z,530.00
2023-04-07T04:28:22.840Z,532.00
2023-04-07T04:29:23.577Z,531.00
2023-04-07T04:30:22.860Z,531.00
2023-04-07T04:31:22.837Z,532.00
2023-04-07T04:32:23.269Z,532.00
2023-04-07T04:33:22.781Z,531.00
2023-04-07T04:34:23.622Z,531.00
2023-04-07T04:35:22.763Z,532.00
2023-04-07T04:36:22.744Z,532.00
2023-04-07T04:37:22.728Z,531.00
2023-04-07T04:38:22.747Z,532.00
2023-04-07T04:39:22.739Z,531.00
2023-04-07T04:40:22.732Z,531.00
2023-04-07T04:41:22.674Z,532.00
2023-04-07T04:42:22.708Z,532.00
2023-04-07T04:43:22.699Z,532.00
2023-04-07T04:44:22.643Z,530.00
2023-04-07T04:45:22.651Z,532.00
2023-04-07T04:46:22.626Z,532.00
2023-04-07T04:47:22.729Z,532.00
2023-04-07T04:48:22.621Z,532.00
2023-04-07T04:49:22.678Z,531.00
2023-04-07T04:50:22.625Z,532.00
2023-04-07T04:51:22.575Z,531.00
2023-04-07T04:52:22.564Z,531.00
2023-04-07T04:53:22.736Z,531.00
2023-04-07T04:54:23.091Z,531.00
2023-04-07T04:55:22.633Z,531.00
2023-04-07T04:56:22.518Z,532.00
2023-04-07T04:57:22.520Z,531.00
2023-04-07T04:58:22.496Z,533.00
2023-04-07T04:59:22.510Z,530.00
2023-04-07T05:00:22.536Z,532.00
2023-04-07T05:01:22.533Z,531.00
2023-04-07T05:02:22.611Z,531.00
2023-04-07T05:03:22.614Z,531.00
2023-04-07T05:04:22.633Z,531.00
2023-04-07T05:05:22.530Z,531.00
2023-04-07T05:06:22.477Z,532.00
2023-04-07T05:07:22.412Z,532.00
2023-04-07T05:08:22.391Z,531.00
2023-04-07T05:09:22.393Z,531.00
2023-04-07T05:10:22.392Z,532.00
2023-04-07T05:11:22.365Z,531.00
2023-04-07T05:12:22.362Z,531.00
2023-04-07T05:13:22.374Z,531.00
2023-04-07T05:14:22.333Z,532.00
2023-04-07T05:15:22.342Z,532.00
2023-04-07T05:16:22.365Z,532.00
2023-04-07T05:17:22.331Z,532.00
2023-04-07T05:18:22.297Z,532.00
2023-04-07T05:21:10.548Z,532.00
2023-04-07T05:22:10.525Z,531.00
2023-04-07T05:23:10.499Z,531.00
2023-04-07T05:24:10.486Z,531.00
2023-04-07T05:25:10.476Z,532.00
2023-04-07T05:26:10.528Z,532.00
2023-04-07T05:27:10.475Z,531.00
2023-04-07T05:28:10.441Z,531.00
2023-04-07T05:29:10.436Z,532.00
2023-04-07T05:30:10.430Z,531.00
2023-04-07T05:31:10.431Z,533.00
2023-04-07T05:32:10.427Z,532.00
2023-04-07T05:33:10.406Z,531.00
2023-04-07T05:34:10.409Z,531.00
2023-04-07T05:35:10.365Z,531.00
2023-04-07T05:36:10.400Z,532.00
2023-04-07T05:37:10.390Z,532.00
2023-04-07T05:38:10.380Z,531.00
2023-04-07T05:39:10.339Z,532.00
2023-04-07T05:40:10.309Z,532.00
2023-04-07T05:41:10.295Z,531.00
2023-04-07T05:42:10.296Z,533.00
2023-04-07T05:43:10.364Z,532.00
2023-04-07T05:44:10.279Z,532.00
2023-04-07T05:45:10.261Z,532.00
2023-04-07T05:46:10.317Z,532.00
2023-04-07T05:47:10.233Z,531.00
2023-04-07T05:48:10.233Z,531.00
2023-04-07T05:49:19.536Z,532.00
2023-04-07T05:50:11.218Z,532.00
2023-04-07T05:51:17.233Z,531.00
2023-04-07T05:52:10.180Z,531.00
2023-04-07T05:53:10.174Z,532.00
2023-04-07T05:54:10.186Z,532.00
2023-04-07T05:55:10.184Z,532.00
2023-04-07T05:56:10.945Z,533.00
2023-04-07T05:57:10.135Z,532.00
2023-04-07T05:58:10.109Z,532.00
2023-04-07T05:59:10.173Z,532.00
2023-04-07T06:00:10.099Z,532.00
2023-04-07T06:01:10.089Z,532.00
2023-04-07T06:02:10.187Z,532.00
2023-04-07T06:03:10.160Z,532.00
2023-04-07T06:04:10.065Z,533.00
2023-04-07T06:05:10.075Z,532.00
2023-04-07T06:06:10.040Z,533.00
2023-04-07T06:07:10.027Z,533.00
2023-04-07T06:08:10.008Z,532.00
2023-04-07T06:09:10.042Z,532.00
2023-04-07T06:10:10.016Z,532.00
2023-04-07T06:11:09.975Z,532.00
2023-04-07T06:12:09.975Z,532.00
2023-04-07T06:13:09.956Z,532.00
2023-04-07T06:14:09.958Z,532.00
2023-04-07T06:15:10.004Z,533.00
2023-04-07T06:16:09.995Z,532.00
2023-04-07T06:17:09.951Z,532.00
2023-04-07T06:18:09.914Z,532.00
2023-04-07T06:19:09.900Z,531.00
2023-04-07T06:20:09.917Z,532.00
2023-04-07T06:21:09.872Z,532.00
2023-04-07T06:22:09.864Z,532.00
2023-04-07T06:23:09.876Z,532.00
2023-04-07T06:24:09.836Z,532.00
2023-04-07T06:25:09.817Z,531.00
2023-04-07T06:26:09.902Z,533.00
2023-04-07T06:27:09.802Z,532.00
2023-04-07T06:28:09.788Z,532.00
2023-04-07T06:29:09.817Z,532.00
2023-04-07T06:30:09.771Z,533.00
2023-04-07T06:31:09.793Z,532.00
2023-04-07T06:32:09.760Z,532.00
2023-04-07T06:33:09.743Z,532.00
2023-04-07T06:34:09.726Z,532.00
2023-04-07T06:35:09.732Z,532.00
2023-04-07T06:36:09.712Z,531.00
2023-04-07T06:37:09.793Z,531.00
2023-04-07T06:38:09.682Z,465.00
2023-04-07T06:39:09.692Z,459.00
2023-04-07T06:40:09.705Z,456.00
2023-04-07T06:41:09.701Z,452.00
2023-04-07T06:42:09.671Z,451.00
2023-04-07T06:43:10.452Z,448.00
2023-04-07T06:44:09.760Z,448.00
2023-04-07T06:45:10.528Z,446.00
2023-04-07T06:46:09.618Z,446.00
2023-04-07T06:47:09.641Z,444.00
2023-04-07T06:48:10.290Z,445.00
2023-04-07T06:49:09.597Z,443.00
2023-04-07T06:50:09.555Z,445.00
2023-04-07T06:51:09.547Z,444.00
2023-04-07T06:52:09.572Z,444.00
2023-04-07T06:53:09.571Z,443.00
2023-04-07T06:54:09.505Z,444.00
2023-04-07T06:55:09.557Z,444.00
2023-04-07T06:56:09.524Z,443.00
2023-04-07T06:57:09.482Z,443.00
2023-04-07T06:58:09.500Z,443.00
2023-04-07T06:59:09.508Z,442.00
2023-04-07T07:00:09.513Z,441.00
2023-04-07T07:01:09.544Z,441.00
2023-04-07T07:02:09.676Z,442.00
2023-04-07T07:03:09.737Z,442.00
2023-04-07T07:04:09.534Z,442.00
2023-04-07T07:05:09.389Z,440.00
2023-04-07T07:06:09.381Z,441.00
2023-04-07T07:07:09.418Z,441.00
2023-04-07T07:08:09.356Z,440.00
2023-04-07T07:09:09.358Z,440.00
2023-04-07T07:10:09.345Z,441.00
2023-04-07T07:11:09.348Z,440.00
2023-04-07T07:12:09.359Z,440.00
2023-04-07T07:13:09.334Z,440.00
2023-04-07T07:14:09.319Z,440.00
2023-04-07T07:15:09.292Z,441.00
2023-04-07T07:16:10.544Z,441.00
2023-04-07T07:17:09.530Z,439.00
2023-04-07T07:18:10.006Z,440.00
2023-04-07T07:19:09.242Z,440.00
2023-04-07T07:20:10.027Z,440.00
2023-04-07T07:21:09.232Z,440.00
2023-04-07T07:22:09.207Z,439.00
2023-04-07T07:23:10.495Z,439.00
2023-04-07T07:24:09.190Z,439.00
2023-04-07T07:25:09.176Z,439.00
2023-04-07T07:26:09.195Z,439.00
2023-04-07T07:27:09.171Z,439.00
2023-04-07T07:28:10.013Z,439.00
2023-04-07T07:29:09.150Z,438.00
2023-04-07T07:30:09.161Z,439.00
2023-04-07T07:31:10.049Z,439.00
2023-04-07T07:32:09.165Z,439.00
2023-04-07T07:33:09.090Z,439.00
2023-04-07T07:34:09.113Z,440.00
2023-04-07T07:35:09.106Z,440.00
2023-04-07T07:36:09.063Z,438.00
2023-04-07T07:37:09.042Z,441.00
2023-04-07T07:38:09.037Z,439.00
2023-04-07T07:39:09.026Z,440.00
2023-04-07T07:40:09.003Z,440.00
2023-04-07T07:41:09.037Z,439.00
2023-04-07T07:42:17.176Z,438.00
2023-04-07T07:43:09.065Z,439.00
2023-04-07T07:44:08.975Z,438.00
2023-04-07T07:45:09.017Z,438.00
2023-04-07T07:46:09.059Z,440.00
2023-04-07T07:47:08.972Z,439.00
2023-04-07T07:48:08.929Z,439.00
2023-04-07T07:49:08.930Z,440.00
2023-04-07T07:50:08.920Z,438.00
2023-04-07T07:51:08.888Z,438.00
2023-04-07T07:52:10.356Z,440.00
2023-04-07T07:53:08.937Z,439.00
2023-04-07T07:54:08.889Z,439.00
2023-04-07T07:55:08.840Z,440.00
2023-04-07T07:56:08.880Z,438.00
2023-04-07T07:57:08.843Z,439.00
2023-04-07T07:58:08.815Z,440.00
2023-04-07T07:59:08.816Z,439.00
2023-04-07T08:00:08.794Z,439.00
2023-04-07T08:01:08.804Z,440.00
2023-04-07T08:02:08.915Z,439.00
2023-04-07T08:03:09.690Z,439.00
2023-04-07T08:04:09.002Z,439.00
2023-04-07T08:05:08.764Z,438.00
2023-04-07T08:06:08.732Z,440.00
2023-04-07T08:07:08.789Z,439.00
2023-04-07T08:08:08.720Z,439.00
2023-04-07T08:09:08.748Z,439.00
2023-04-07T08:10:08.686Z,438.00
2023-04-07T08:11:08.665Z,438.00
2023-04-07T08:12:09.582Z,439.00
2023-04-07T08:13:08.657Z,439.00
2023-04-07T08:14:09.887Z,439.00
2023-04-07T08:15:08.663Z,438.00
2023-04-07T08:16:08.648Z,438.00
2023-04-07T08:17:08.615Z,439.00
2023-04-07T08:18:08.714Z,439.00
2023-04-07T08:19:08.579Z,439.00
2023-04-07T08:20:16.217Z,438.00
2023-04-07T08:21:08.581Z,440.00
2023-04-07T08:22:16.078Z,439.00
2023-04-07T08:23:16.106Z,438.00
2023-04-07T08:24:16.070Z,437.00
2023-04-07T08:27:03.722Z,438.00
2023-04-07T08:31:38.632Z,439.00
2023-04-07T08:32:46.264Z,438.00
2023-04-07T08:33:38.533Z,438.00
2023-04-07T08:34:38.516Z,439.00
2023-04-07T08:35:39.351Z,439.00
2023-04-07T08:36:38.470Z,438.00
2023-04-07T08:37:38.481Z,438.00
2023-04-07T08:38:38.462Z,438.00
2023-04-07T08:39:38.466Z,437.00
2023-04-07T08:40:38.448Z,437.00
2023-04-07T08:41:38.407Z,437.00
2023-04-07T08:42:45.464Z,436.00
2023-04-07T08:46:13.337Z,438.00
2023-04-07T08:47:13.500Z,438.00
2023-04-07T08:48:13.296Z,437.00
2023-04-07T08:49:13.319Z,437.00
2023-04-07T08:50:13.285Z,439.00
2023-04-07T08:51:13.251Z,437.00
2023-04-07T08:52:13.230Z,438.00
2023-04-07T08:53:13.273Z,438.00
2023-04-07T08:54:13.216Z,438.00
2023-04-07T08:55:13.212Z,437.00
2023-04-07T08:56:13.263Z,438.00
2023-04-07T08:57:13.184Z,439.00
2023-04-07T08:58:13.172Z,437.00
2023-04-07T08:59:13.209Z,437.00
2023-04-07T09:00:13.181Z,439.00
2023-04-07T09:01:13.238Z,437.00
2023-04-07T09:02:13.174Z,438.00
2023-04-07T09:03:13.222Z,437.00
2023-04-07T09:04:13.193Z,438.00
2023-04-07T09:05:13.201Z,439.00
2023-04-07T09:06:13.092Z,438.00
2023-04-07T09:07:13.079Z,437.00
2023-04-07T09:08:13.072Z,437.00
2023-04-07T09:09:14.960Z,437.00
2023-04-07T09:10:13.088Z,438.00
2023-04-07T09:11:14.054Z,437.00
2023-04-07T09:12:13.036Z,437.00
2023-04-07T09:13:13.017Z,438.00
2023-04-07T09:14:13.065Z,437.00
2023-04-07T09:15:13.060Z,438.00
2023-04-07T09:16:13.071Z,438.00
2023-04-07T09:17:12.969Z,439.00
2023-04-07T09:18:12.964Z,439.00
2023-04-07T09:19:12.987Z,437.00
2023-04-07T09:20:12.930Z,438.00
2023-04-07T09:21:14.516Z,438.00
2023-04-07T09:22:12.962Z,437.00
2023-04-07T09:23:13.480Z,438.00
2023-04-07T09:24:12.887Z,437.00
2023-04-07T09:25:12.891Z,439.00
2023-04-07T09:26:12.876Z,438.00
2023-04-07T09:27:14.563Z,438.00
2023-04-07T09:28:12.905Z,438.00
2023-04-07T09:29:12.847Z,438.00
2023-04-07T09:30:12.842Z,437.00
2023-04-07T09:31:12.831Z,439.00
2023-04-07T09:32:12.916Z,438.00
2023-04-07T09:33:12.789Z,438.00
2023-04-07T09:34:12.817Z,439.00
2023-04-07T09:35:12.784Z,437.00
2023-04-07T09:36:12.807Z,438.00
2023-04-07T09:37:12.778Z,438.00
2023-04-07T09:38:12.786Z,437.00
2023-04-07T09:39:19.761Z,437.00
2023-04-07T09:40:12.770Z,438.00
2023-04-07T09:41:12.747Z,436.00
2023-04-07T09:42:12.708Z,437.00
2023-04-07T09:43:12.672Z,438.00
2023-04-07T09:44:12.715Z,436.00
2023-04-07T09:45:14.561Z,438.00
2023-04-07T09:46:13.706Z,438.00
2023-04-07T09:47:12.634Z,437.00
2023-04-07T09:48:12.628Z,437.00
2023-04-07T09:49:12.637Z,437.00
2023-04-07T09:50:12.623Z,438.00
2023-04-07T09:51:12.609Z,438.00
2023-04-07T09:52:12.610Z,437.00
2023-04-07T09:53:12.605Z,437.00
2023-04-07T09:54:12.571Z,438.00
2023-04-07T09:55:12.603Z,438.00
2023-04-07T09:56:12.593Z,437.00
2023-04-07T09:57:12.540Z,437.00
2023-04-07T09:58:12.556Z,437.00
2023-04-07T09:59:12.520Z,437.00
2023-04-07T10:00:12.510Z,437.00
2023-04-07T10:01:12.661Z,438.00
2023-04-07T10:02:12.667Z,436.00
2023-04-07T10:03:12.499Z,437.00
2023-04-07T10:04:12.544Z,437.00
2023-04-07T10:05:12.445Z,436.00
2023-04-07T10:06:12.473Z,437.00
2023-04-07T10:07:12.413Z,437.00
2023-04-07T10:08:12.426Z,437.00
2023-04-07T10:09:12.452Z,438.00
2023-04-07T10:10:12.389Z,436.00
2023-04-07T10:11:12.386Z,437.00
2023-04-07T10:12:12.408Z,437.00
2023-04-07T10:13:12.408Z,437.00
2023-04-07T10:14:12.361Z,436.00
2023-04-07T10:15:12.346Z,437.00
2023-04-07T10:16:12.371Z,436.00
2023-04-07T10:17:12.337Z,437.00
2023-04-07T10:18:12.330Z,438.00
2023-04-07T10:19:12.325Z,439.00
2023-04-07T10:20:12.298Z,440.00
2023-04-07T10:21:12.313Z,439.00
2023-04-07T10:22:12.260Z,440.00
2023-04-07T10:23:13.023Z,439.00
2023-04-07T10:24:12.232Z,439.00
2023-04-07T10:25:12.289Z,439.00
2023-04-07T10:26:12.228Z,440.00
2023-04-07T10:27:12.225Z,439.00
2023-04-07T10:28:12.188Z,440.00
2023-04-07T10:29:12.184Z,439.00
2023-04-07T10:30:12.216Z,439.00
2023-04-07T10:31:12.204Z,438.00
2023-04-07T10:34:00.862Z,439.00
2023-04-07T10:35:07.846Z,440.00
2023-04-07T10:36:09.388Z,439.00
2023-04-07T10:38:58.188Z,439.00
2023-04-07T10:39:55.664Z,440.00
2023-04-07T10:41:04.220Z,438.00
2023-04-07T10:42:03.260Z,438.00
2023-04-07T10:43:05.753Z,438.00
2023-04-07T10:45:55.063Z,440.00
2023-04-07T10:46:50.598Z,439.00
2023-04-07T10:47:59.093Z,438.00
2023-04-07T10:53:12.696Z,440.00
2023-04-07T10:54:20.379Z,438.00
2023-04-07T11:15:24.007Z,439.00
2023-04-07T11:16:31.396Z,439.00
2023-04-07T11:17:30.565Z,438.00
2023-04-07T11:18:30.257Z,438.00
2023-04-07T11:19:29.759Z,438.00
2023-04-07T11:20:32.637Z,439.00
2023-04-07T11:21:30.333Z,438.00
2023-04-07T11:24:17.622Z,438.00
2023-04-07T11:27:12.475Z,439.00
2023-04-07T11:28:20.103Z,438.00
2023-04-07T11:29:20.716Z,438.00
2023-04-07T11:30:12.441Z,438.00
2023-04-07T11:31:20.258Z,436.00
2023-04-07T11:37:43.211Z,439.00
2023-04-07T11:38:44.037Z,438.00
2023-04-07T11:39:50.193Z,437.00
2023-04-07T11:40:50.591Z,438.00
2023-04-07T11:41:43.170Z,439.00
2023-04-07T11:42:50.917Z,437.00
2023-04-07T11:45:38.027Z,438.00
2023-04-07T11:46:45.133Z,438.00
2023-04-07T11:52:01.201Z,439.00
2023-04-07T11:53:08.478Z,438.00
2023-04-07T11:54:09.437Z,437.00
2023-04-07T11:55:00.850Z,437.00
2023-04-07T11:56:11.647Z,436.00
2023-04-07T11:57:09.441Z,438.00
2023-04-07T11:58:01.710Z,438.00
2023-04-07T11:59:01.622Z,437.00
2023-04-07T12:00:02.713Z,438.00
2023-04-07T12:01:09.343Z,437.00
2023-04-07T12:02:09.643Z,437.00
2023-04-07T12:05:10.104Z,437.00
2023-04-07T12:06:07.459Z,437.00
2023-04-07T12:07:07.421Z,438.00
2023-04-07T12:08:16.442Z,437.00
2023-04-07T12:18:19.514Z,437.00
2023-04-07T12:22:26.483Z,438.00
2023-04-07T12:23:26.447Z,438.00
2023-04-07T12:24:26.428Z,438.00
2023-04-07T12:25:26.426Z,438.00
2023-04-07T12:26:27.126Z,437.00
2023-04-07T12:27:39.664Z,436.00
2023-04-07T12:28:27.389Z,438.00
2023-04-07T12:29:26.411Z,436.00
2023-04-07T12:30:26.374Z,438.00
2023-04-07T12:31:26.435Z,436.00
2023-04-07T12:32:26.381Z,438.00
2023-04-07T12:33:27.191Z,436.00
2023-04-07T12:34:26.338Z,437.00
2023-04-07T12:35:26.333Z,438.00
2023-04-07T12:36:26.332Z,438.00
2023-04-07T12:37:26.278Z,438.00
2023-04-07T12:38:26.283Z,437.00
2023-04-07T12:39:26.294Z,437.00
2023-04-07T12:40:26.268Z,437.00
2023-04-07T12:41:27.166Z,438.00
2023-04-07T12:42:26.708Z,438.00
2023-04-07T12:43:26.250Z,437.00
2023-04-07T12:44:26.243Z,438.00
2023-04-07T12:45:26.705Z,438.00
2023-04-07T12:46:26.297Z,438.00
2023-04-07T12:47:27.169Z,437.00
2023-04-07T12:48:26.180Z,437.00
2023-04-07T12:49:26.199Z,437.00
2023-04-07T12:50:26.273Z,437.00
2023-04-07T12:51:26.244Z,437.00
2023-04-07T12:52:26.140Z,438.00
2023-04-07T12:53:26.120Z,438.00
2023-04-07T12:54:28.703Z,437.00
2023-04-07T12:55:26.104Z,437.00
2023-04-07T12:56:26.155Z,437.00
2023-04-07T12:57:26.132Z,437.00
2023-04-07T12:58:26.097Z,437.00
2023-04-07T12:59:26.051Z,437.00
2023-04-07T13:00:27.648Z,436.00
2023-04-07T13:01:26.126Z,436.00
2023-04-07T13:02:26.347Z,436.00
2023-04-07T13:03:26.790Z,437.00
2023-04-07T13:04:26.836Z,437.00
2023-04-07T13:05:26.663Z,436.00
2023-04-07T13:06:26.051Z,436.00
2023-04-07T13:07:25.995Z,436.00
2023-04-07T13:08:25.979Z,437.00
2023-04-07T13:09:25.988Z,437.00
2023-04-07T13:10:25.933Z,436.00
2023-04-07T13:11:26.698Z,436.00
2023-04-07T13:12:25.979Z,437.00
2023-04-07T13:13:25.905Z,437.00
2023-04-07T13:14:25.923Z,436.00
2023-04-07T13:15:25.936Z,437.00
2023-04-07T13:16:25.889Z,437.00
2023-04-07T13:17:25.991Z,437.00
2023-04-07T13:18:25.838Z,437.00
2023-04-07T13:19:25.847Z,437.00
2023-04-07T13:20:25.840Z,437.00
2023-04-07T13:22:25.817Z,436.00
2023-04-07T13:23:26.466Z,437.00
2023-04-07T13:24:25.792Z,437.00
2023-04-07T13:25:25.808Z,436.00
2023-04-07T13:26:25.756Z,436.00
2023-04-07T13:27:25.753Z,437.00
2023-04-07T13:28:25.731Z,436.00
2023-04-07T13:29:25.782Z,437.00
2023-04-07T13:30:25.766Z,436.00
2023-04-07T13:31:25.704Z,437.00
2023-04-07T13:32:25.718Z,437.00
2023-04-07T13:33:25.699Z,437.00
2023-04-07T13:34:25.676Z,435.00
2023-04-07T13:35:25.767Z,437.00
2023-04-07T13:36:25.671Z,438.00
2023-04-07T13:37:25.676Z,437.00
2023-04-07T13:38:25.713Z,437.00
2023-04-07T13:39:25.624Z,436.00